Time;durP1;ratioP1;P1;durP2;ratioP2;P2;SDS_P1;SDS_P2;PMS_P1;PMS_P2;Temp;Humidity;BMP_temperature;BMP_pressure;BME280_temperature;BME280_humidity;BME280_pressure;Samples;Min_cycle;Max_cycle;Signal;HPM_P1;HPM_P2
2024/02/17 00:00:33;;;;;;;34.25;20.63;;;;;;;;;;5076333;28;20039;-57
2024/02/17 00:02:59;;;;;;;31.55;18.73;;;;;;;;;;5074797;28;20028;-57
2024/02/17 00:05:24;;;;;;;32.95;18.73;;;;;;;;;;5075695;28;20032;-58
2024/02/17 00:07:50;;;;;;;36.55;20.23;;;;;;;;;;5076253;28;20081;-57
2024/02/17 00:10:16;;;;;;;32.70;19.80;;;;;;;;;;5075634;28;20045;-57
2024/02/17 00:12:41;;;;;;;33.45;18.63;;;;;;;;;;5075561;28;20043;-57
2024/02/17 00:15:07;;;;;;;32.90;19.20;;;;;;;;;;5076092;28;20025;-57
2024/02/17 00:17:32;;;;;;;30.50;18.40;;;;;;;;;;5075682;28;20379;-57
2024/02/17 00:19:57;;;;;;;29.00;17.73;;;;;;;;;;5075423;28;20028;-57
2024/02/17 00:22:23;;;;;;;26.83;17.02;;;;;;;;;;5075703;28;20024;-57
2024/02/17 00:24:48;;;;;;;29.27;16.73;;;;;;;;;;5075324;28;20378;-57
2024/02/17 00:27:13;;;;;;;31.27;17.20;;;;;;;;;;5075566;28;20035;-57
2024/02/17 00:29:39;;;;;;;27.42;16.83;;;;;;;;;;5074751;28;20067;-57
2024/02/17 00:32:04;;;;;;;25.65;16.92;;;;;;;;;;5075206;28;20052;-57
2024/02/17 00:34:30;;;;;;;31.65;17.02;;;;;;;;;;5072680;28;20038;-57
2024/02/17 00:36:55;;;;;;;30.85;16.60;;;;;;;;;;5072934;28;20036;-57
2024/02/17 00:39:21;;;;;;;30.73;17.00;;;;;;;;;;5072988;28;20600;-57
2024/02/17 00:41:46;;;;;;;28.65;17.15;;;;;;;;;;5072294;28;20021;-57
2024/02/17 00:44:12;;;;;;;28.02;15.82;;;;;;;;;;5073180;28;20528;-57
2024/02/17 00:46:37;;;;;;;26.92;15.68;;;;;;;;;;5073128;28;20028;-58
2024/02/17 00:49:02;;;;;;;26.50;16.52;;;;;;;;;;5073321;28;20481;-58
2024/02/17 00:51:28;;;;;;;22.52;14.57;;;;;;;;;;5074304;28;20029;-58
2024/02/17 00:53:53;;;;;;;24.15;14.77;;;;;;;;;;5074670;28;20028;-58
2024/02/17 00:56:21;;;;;;;26.05;14.05;;;;;;;;;;5072727;28;20078;-59
2024/02/17 00:58:46;;;;;;;26.83;15.40;;;;;;;;;;5071585;28;20115;-59
2024/02/17 01:01:11;;;;;;;23.90;15.15;;;;;;;;;;5072652;28;20108;-58
2024/02/17 01:03:37;;;;;;;22.55;15.07;;;;;;;;;;5072716;28;20093;-58
2024/02/17 01:06:03;;;;;;;21.75;13.90;;;;;;;;;;5072667;28;20021;-58
2024/02/17 01:08:29;;;;;;;20.00;13.23;;;;;;;;;;5072585;28;20029;-59
2024/02/17 01:10:54;;;;;;;26.27;14.48;;;;;;;;;;5074268;28;20094;-59
2024/02/17 01:13:19;;;;;;;24.83;14.07;;;;;;;;;;5074425;28;20028;-59
2024/02/17 01:15:45;;;;;;;19.10;12.82;;;;;;;;;;5074328;28;20413;-59
2024/02/17 01:18:10;;;;;;;21.20;12.95;;;;;;;;;;5074510;28;20028;-59
2024/02/17 01:20:36;;;;;;;17.80;12.15;;;;;;;;;;5073868;28;20032;-59
2024/02/17 01:23:01;;;;;;;18.63;12.75;;;;;;;;;;5074269;28;20029;-59
2024/02/17 01:25:27;;;;;;;22.38;13.10;;;;;;;;;;5073542;28;20024;-58
2024/02/17 01:27:52;;;;;;;19.70;12.98;;;;;;;;;;5074097;28;20470;-60
2024/02/17 01:30:18;;;;;;;23.10;13.27;;;;;;;;;;5073896;28;20032;-60
2024/02/17 01:32:43;;;;;;;18.08;12.05;;;;;;;;;;5074303;28;20032;-59
2024/02/17 01:35:09;;;;;;;21.70;13.50;;;;;;;;;;5074280;28;20067;-59
2024/02/17 01:37:35;;;;;;;19.52;12.48;;;;;;;;;;5074472;28;20094;-60
2024/02/17 01:40:00;;;;;;;19.05;13.80;;;;;;;;;;5074248;28;20025;-59
2024/02/17 01:42:26;;;;;;;22.50;13.98;;;;;;;;;;5073946;28;20390;-60
2024/02/17 01:44:51;;;;;;;20.40;12.57;;;;;;;;;;5073874;28;20034;-60
2024/02/17 01:47:17;;;;;;;18.05;12.77;;;;;;;;;;5074146;28;20467;-60
2024/02/17 01:49:42;;;;;;;19.42;11.98;;;;;;;;;;5074136;28;20036;-60
2024/02/17 01:52:08;;;;;;;20.90;12.88;;;;;;;;;;5074069;28;20032;-58
2024/02/17 01:54:33;;;;;;;17.80;12.43;;;;;;;;;;5074075;28;20036;-58
2024/02/17 01:57:00;;;;;;;18.77;12.63;;;;;;;;;;5073990;28;20029;-58
2024/02/17 01:59:25;;;;;;;19.77;12.93;;;;;;;;;;5073711;28;20082;-58
2024/02/17 02:01:51;;;;;;;16.92;12.13;;;;;;;;;;5073731;28;20036;-58
2024/02/17 02:04:16;;;;;;;19.88;13.48;;;;;;;;;;5072785;28;20029;-58
2024/02/17 02:06:42;;;;;;;18.85;12.35;;;;;;;;;;5073684;28;20095;-58
2024/02/17 02:09:07;;;;;;;19.23;12.57;;;;;;;;;;5073572;28;20028;-58
2024/02/17 02:11:33;;;;;;;16.23;11.98;;;;;;;;;;5074159;28;20081;-59
2024/02/17 02:14:11;;;;;;;17.70;12.15;;;;;;;;;;5073566;28;20467;-59
2024/02/17 02:16:37;;;;;;;17.30;11.65;;;;;;;;;;5073749;28;20039;-59
2024/02/17 02:19:02;;;;;;;17.20;12.10;;;;;;;;;;5074050;28;20028;-59
2024/02/17 02:21:27;;;;;;;15.90;11.60;;;;;;;;;;5073432;28;20033;-60
2024/02/17 02:23:53;;;;;;;19.33;11.93;;;;;;;;;;5074032;28;20107;-59
2024/02/17 02:26:19;;;;;;;17.40;11.68;;;;;;;;;;5073477;28;20456;-58
2024/02/17 02:28:44;;;;;;;18.08;12.48;;;;;;;;;;5073679;28;20158;-60
2024/02/17 02:31:09;;;;;;;15.73;11.25;;;;;;;;;;5073056;28;20076;-60
2024/02/17 02:33:35;;;;;;;17.08;12.15;;;;;;;;;;5072729;28;20058;-59
2024/02/17 02:36:00;;;;;;;18.55;12.13;;;;;;;;;;5071577;28;20041;-59
2024/02/17 02:38:25;;;;;;;20.33;12.32;;;;;;;;;;5072359;28;20036;-59
2024/02/17 02:40:51;;;;;;;17.48;12.73;;;;;;;;;;5072694;28;20031;-60
2024/02/17 02:43:16;;;;;;;19.77;12.45;;;;;;;;;;5072891;28;20466;-59
2024/02/17 02:45:42;;;;;;;18.58;12.23;;;;;;;;;;5072370;28;20421;-60
2024/02/17 02:48:07;;;;;;;16.90;11.65;;;;;;;;;;5071681;28;20032;-60
2024/02/17 02:50:32;;;;;;;16.98;11.20;;;;;;;;;;5071313;28;20108;-60
2024/02/17 02:52:58;;;;;;;18.90;12.85;;;;;;;;;;5072199;28;20066;-60
2024/02/17 02:55:23;;;;;;;19.30;12.98;;;;;;;;;;5072481;28;20033;-58
2024/02/17 02:57:48;;;;;;;16.63;12.65;;;;;;;;;;5072698;28;20086;-59
2024/02/17 03:00:14;;;;;;;17.60;12.80;;;;;;;;;;5072673;28;20029;-60
2024/02/17 03:02:39;;;;;;;17.85;12.98;;;;;;;;;;5072423;28;20051;-60
2024/02/17 03:05:05;;;;;;;16.58;12.38;;;;;;;;;;5073828;28;20474;-60
2024/02/17 03:07:30;;;;;;;19.58;12.88;;;;;;;;;;5075576;28;20032;-60
2024/02/17 03:09:55;;;;;;;20.17;13.23;;;;;;;;;;5076095;28;20032;-60
2024/02/17 03:12:21;;;;;;;17.27;12.93;;;;;;;;;;5076094;28;20036;-59
2024/02/17 03:14:46;;;;;;;17.33;12.63;;;;;;;;;;5075420;28;20021;-60
2024/02/17 03:17:11;;;;;;;20.65;13.52;;;;;;;;;;5075953;28;20048;-58
2024/02/17 03:19:37;;;;;;;17.67;12.73;;;;;;;;;;5075338;28;20494;-58
2024/02/17 03:22:05;;;;;;;17.10;12.80;;;;;;;;;;5075402;28;20029;-59
2024/02/17 03:24:31;;;;;;;17.38;12.27;;;;;;;;;;5075894;28;20017;-59
2024/02/17 03:26:56;;;;;;;17.92;12.52;;;;;;;;;;5075880;28;20112;-60
2024/02/17 03:29:22;;;;;;;17.15;11.73;;;;;;;;;;5075495;28;20483;-59
2024/02/17 03:31:47;;;;;;;15.60;11.63;;;;;;;;;;5037520;28;1097570;-59
2024/02/17 03:34:13;;;;;;;17.25;11.52;;;;;;;;;;5076579;28;20024;-59
2024/02/17 03:36:38;;;;;;;18.23;11.88;;;;;;;;;;5076222;28;20054;-59
2024/02/17 03:39:07;;;;;;;17.98;11.68;;;;;;;;;;5076214;28;20048;-59
2024/02/17 03:41:33;;;;;;;16.88;11.90;;;;;;;;;;5074961;28;20478;-57
2024/02/17 03:43:58;;;;;;;20.55;11.88;;;;;;;;;;5076207;28;20056;-57
2024/02/17 03:46:23;;;;;;;17.25;11.68;;;;;;;;;;5076348;28;20103;-57
2024/02/17 03:48:49;;;;;;;21.02;14.20;;;;;;;;;;5076610;28;20455;-57
2024/02/17 03:51:14;;;;;;;25.05;16.00;;;;;;;;;;5076299;28;20029;-59
2024/02/17 03:53:41;;;;;;;17.58;13.13;;;;;;;;;;5076029;28;20025;-59
2024/02/17 03:56:06;;;;;;;22.50;15.10;;;;;;;;;;5075346;28;20035;-59
2024/02/17 03:58:32;;;;;;;23.38;15.55;;;;;;;;;;5076123;28;20032;-59
2024/02/17 04:00:57;;;;;;;22.52;14.85;;;;;;;;;;5075860;28;20113;-59
2024/02/17 04:03:22;;;;;;;37.72;22.38;;;;;;;;;;5074817;28;20021;-59
2024/02/17 04:05:48;;;;;;;30.45;21.65;;;;;;;;;;5075749;28;20116;-59
2024/02/17 04:08:13;;;;;;;40.45;26.13;;;;;;;;;;5075987;28;20036;-59
2024/02/17 04:10:38;;;;;;;32.13;19.90;;;;;;;;;;5076194;28;20091;-59
2024/02/17 04:13:04;;;;;;;27.65;16.77;;;;;;;;;;5075959;28;20131;-59
2024/02/17 04:15:29;;;;;;;23.95;15.32;;;;;;;;;;5074981;28;20044;-59
2024/02/17 04:17:55;;;;;;;18.35;12.48;;;;;;;;;;5075176;28;20107;-59
2024/02/17 04:20:20;;;;;;;25.45;15.15;;;;;;;;;;5075720;28;20064;-59
2024/02/17 04:22:45;;;;;;;18.05;12.80;;;;;;;;;;5075379;28;20016;-59
2024/02/17 04:25:11;;;;;;;24.63;14.38;;;;;;;;;;5075385;28;20078;-59
2024/02/17 04:27:37;;;;;;;18.60;13.30;;;;;;;;;;5075843;28;20040;-58
2024/02/17 04:30:02;;;;;;;20.90;13.50;;;;;;;;;;5075296;28;20032;-58
2024/02/17 04:32:27;;;;;;;19.10;13.80;;;;;;;;;;5073928;28;20056;-58
2024/02/17 04:34:53;;;;;;;21.55;14.68;;;;;;;;;;5075460;28;20032;-58
2024/02/17 04:37:19;;;;;;;24.40;15.93;;;;;;;;;;5075081;28;20028;-58
2024/02/17 04:39:44;;;;;;;27.02;16.63;;;;;;;;;;5075688;28;20037;-58
2024/02/17 04:42:09;;;;;;;25.73;15.80;;;;;;;;;;5075584;28;20028;-58
2024/02/17 04:44:35;;;;;;;26.77;16.23;;;;;;;;;;5075212;28;20033;-58
2024/02/17 04:47:00;;;;;;;24.48;15.35;;;;;;;;;;5075236;28;20107;-58
2024/02/17 04:49:26;;;;;;;29.48;16.98;;;;;;;;;;5074825;28;20520;-59
2024/02/17 04:51:51;;;;;;;24.05;14.75;;;;;;;;;;5074926;28;20439;-59
2024/02/17 04:54:16;;;;;;;28.20;14.60;;;;;;;;;;5075358;28;20023;-60
2024/02/17 04:56:42;;;;;;;21.23;13.00;;;;;;;;;;5073567;28;20393;-60
2024/02/17 04:59:07;;;;;;;20.73;12.48;;;;;;;;;;5074746;28;20020;-59
2024/02/17 05:01:33;;;;;;;26.88;14.68;;;;;;;;;;5074921;28;20100;-59
2024/02/17 05:03:58;;;;;;;28.33;18.08;;;;;;;;;;5074604;28;20375;-59
2024/02/17 05:06:24;;;;;;;20.23;13.10;;;;;;;;;;5074577;28;20382;-59
2024/02/17 05:08:49;;;;;;;28.50;15.55;;;;;;;;;;5074756;28;20029;-59
2024/02/17 05:11:15;;;;;;;22.58;14.32;;;;;;;;;;5074712;28;20020;-59
2024/02/17 05:13:41;;;;;;;20.75;13.15;;;;;;;;;;5074429;28;20040;-59
2024/02/17 05:16:06;;;;;;;22.27;14.52;;;;;;;;;;5074635;28;20071;-59
2024/02/17 05:18:32;;;;;;;26.35;18.50;;;;;;;;;;5074231;28;20379;-58
2024/02/17 05:20:57;;;;;;;20.30;13.30;;;;;;;;;;5074541;28;20037;-58
2024/02/17 05:23:23;;;;;;;19.02;11.93;;;;;;;;;;5074536;28;20025;-59
2024/02/17 05:25:49;;;;;;;20.00;13.35;;;;;;;;;;5073401;28;20032;-59
2024/02/17 05:28:15;;;;;;;21.58;13.77;;;;;;;;;;5074223;28;20067;-60
2024/02/17 05:30:40;;;;;;;22.58;14.65;;;;;;;;;;5074074;28;20068;-57
2024/02/17 05:33:06;;;;;;;22.45;12.85;;;;;;;;;;5074610;28;20052;-57
2024/02/17 05:35:31;;;;;;;21.35;12.88;;;;;;;;;;5074020;28;20155;-59
2024/02/17 05:37:56;;;;;;;32.78;21.08;;;;;;;;;;5074021;28;20074;-59
2024/02/17 05:40:23;;;;;;;28.55;21.55;;;;;;;;;;5074259;28;20498;-58
2024/02/17 05:42:48;;;;;;;38.63;27.48;;;;;;;;;;5074472;28;20028;-58
2024/02/17 05:45:14;;;;;;;30.33;22.35;;;;;;;;;;5074580;28;20013;-58
2024/02/17 05:47:39;;;;;;;18.85;13.95;;;;;;;;;;5074231;28;20047;-58
2024/02/17 05:50:05;;;;;;;16.33;12.13;;;;;;;;;;5074382;28;20032;-58
2024/02/17 05:52:32;;;;;;;23.13;15.82;;;;;;;;;;5074331;28;20047;-58
2024/02/17 05:54:57;;;;;;;19.17;13.45;;;;;;;;;;5074316;28;20383;-58
2024/02/17 05:57:23;;;;;;;21.50;13.88;;;;;;;;;;5074172;28;20042;-59
2024/02/17 05:59:48;;;;;;;18.00;11.70;;;;;;;;;;5073965;28;20069;-59
2024/02/17 06:02:13;;;;;;;13.30;9.60;;;;;;;;;;5073750;28;20456;-59
2024/02/17 06:04:39;;;;;;;13.80;10.23;;;;;;;;;;5074266;28;20062;-59
2024/02/17 06:07:04;;;;;;;19.17;12.15;;;;;;;;;;5073950;28;20071;-59
2024/02/17 06:09:29;;;;;;;15.07;11.43;;;;;;;;;;5074167;28;20052;-59
2024/02/17 06:11:55;;;;;;;14.07;10.98;;;;;;;;;;5072275;28;20501;-59
2024/02/17 06:14:21;;;;;;;12.13;9.98;;;;;;;;;;5074264;28;20485;-59
2024/02/17 06:16:47;;;;;;;12.63;10.18;;;;;;;;;;5074042;28;20078;-59
2024/02/17 06:21:56;;;;;;;16.17;12.48;;;;;;;;;;5073967;28;20067;-60
2024/02/17 06:24:21;;;;;;;16.45;11.60;;;;;;;;;;5072651;28;20060;-60
2024/02/17 06:26:47;;;;;;;13.82;10.82;;;;;;;;;;5073783;28;20056;-57
2024/02/17 06:29:12;;;;;;;11.80;10.13;;;;;;;;;;5073845;28;20021;-57
2024/02/17 06:31:37;;;;;;;11.77;9.63;;;;;;;;;;5073678;28;20402;-57
2024/02/17 06:34:03;;;;;;;12.23;9.73;;;;;;;;;;5073723;28;20459;-57
2024/02/17 06:36:28;;;;;;;13.20;9.70;;;;;;;;;;5073545;28;20055;-57
2024/02/17 06:38:54;;;;;;;13.25;10.02;;;;;;;;;;5073321;28;20039;-57
2024/02/17 06:41:19;;;;;;;12.23;9.50;;;;;;;;;;5077597;28;20021;-61
2024/02/17 06:43:46;;;;;;;14.63;9.90;;;;;;;;;;5078034;28;20030;-57
2024/02/17 06:46:11;;;;;;;12.35;8.75;;;;;;;;;;5075990;28;20024;-56
2024/02/17 06:48:37;;;;;;;17.95;11.48;;;;;;;;;;5077230;28;20482;-56
2024/02/17 06:51:05;;;;;;;21.63;12.27;;;;;;;;;;5077173;28;20028;-57
2024/02/17 06:53:30;;;;;;;22.65;13.00;;;;;;;;;;5077114;28;20020;-56
2024/02/17 06:55:56;;;;;;;22.90;12.73;;;;;;;;;;5077192;28;20489;-56
2024/02/17 06:58:23;;;;;;;27.92;12.90;;;;;;;;;;5077416;28;20032;-56
2024/02/17 07:01:02;;;;;;;19.33;10.35;;;;;;;;;;5077147;28;20024;-56
2024/02/17 07:03:28;;;;;;;15.93;9.88;;;;;;;;;;5076046;28;20111;-56
2024/02/17 07:05:55;;;;;;;13.85;10.27;;;;;;;;;;5076946;28;20108;-61
2024/02/17 07:08:55;;;;;;;16.45;10.25;;;;;;;;;;5110942;22;20138;-57
2024/02/17 07:11:32;;;;;;;28.05;13.90;;;;;;;;;;5076342;22;20083;-56
2024/02/17 07:14:14;;;;;;;24.38;12.68;;;;;;;;;;5091846;22;20048;-61
2024/02/17 07:16:39;;;;;;;19.38;11.02;;;;;;;;;;5130834;22;20101;-57
2024/02/17 07:19:06;;;;;;;16.58;10.52;;;;;;;;;;5108920;22;20048;-61
2024/02/17 07:21:32;;;;;;;20.83;11.25;;;;;;;;;;5096651;28;20108;-61
2024/02/17 07:23:58;;;;;;;16.55;10.13;;;;;;;;;;5095169;28;20060;-61
2024/02/17 07:26:23;;;;;;;14.27;9.02;;;;;;;;;;5096340;28;20024;-61
2024/02/17 07:28:48;;;;;;;13.85;8.38;;;;;;;;;;5095208;28;20500;-61
2024/02/17 07:31:16;;;;;;;14.73;8.23;;;;;;;;;;5096470;28;20024;-61
2024/02/17 07:33:49;;;;;;;13.18;8.25;;;;;;;;;;5096492;28;20067;-61
2024/02/17 07:36:14;;;;;;;11.38;8.18;;;;;;;;;;5096183;28;20032;-61
2024/02/17 07:38:39;;;;;;;11.52;8.02;;;;;;;;;;5096210;28;20055;-61
2024/02/17 07:41:05;;;;;;;10.30;7.10;;;;;;;;;;5096432;28;20028;-61
2024/02/17 07:43:30;;;;;;;10.75;6.68;;;;;;;;;;5096137;28;20035;-61
2024/02/17 07:45:56;;;;;;;9.75;6.97;;;;;;;;;;5095922;28;20072;-61
2024/02/17 07:48:21;;;;;;;7.97;6.38;;;;;;;;;;5096099;28;20024;-61
2024/02/17 07:50:46;;;;;;;8.80;5.93;;;;;;;;;;5096234;28;20496;-61
2024/02/17 07:53:12;;;;;;;8.18;6.10;;;;;;;;;;5095587;28;20036;-61
2024/02/17 07:55:37;;;;;;;11.13;7.28;;;;;;;;;;5095891;28;20043;-61
2024/02/17 07:58:06;;;;;;;11.52;7.75;;;;;;;;;;5095756;28;20032;-61
2024/02/17 08:00:31;;;;;;;9.60;7.15;;;;;;;;;;5096009;28;20489;-61
2024/02/17 08:02:56;;;;;;;8.18;5.78;;;;;;;;;;5095612;28;20024;-61
2024/02/17 08:05:22;;;;;;;7.95;6.72;;;;;;;;;;5095658;28;20441;-60
2024/02/17 08:07:47;;;;;;;9.75;8.00;;;;;;;;;;5095679;28;20066;-64
2024/02/17 08:10:13;;;;;;;16.38;10.32;;;;;;;;;;5095568;28;20485;-61
2024/02/17 08:12:38;;;;;;;20.60;12.43;;;;;;;;;;5095966;28;20471;-61
2024/02/17 08:15:06;;;;;;;25.75;13.73;;;;;;;;;;5095519;28;20067;-61
2024/02/17 08:17:31;;;;;;;28.17;14.50;;;;;;;;;;5095286;28;20016;-61
2024/02/17 08:19:57;;;;;;;17.42;10.02;;;;;;;;;;5112582;28;20397;-61
2024/02/17 08:22:23;;;;;;;14.32;9.52;;;;;;;;;;5115816;28;20377;-61
2024/02/17 08:24:48;;;;;;;9.30;8.15;;;;;;;;;;5115826;28;20047;-61
2024/02/17 08:27:13;;;;;;;12.73;8.73;;;;;;;;;;5115727;28;20073;-61
2024/02/17 08:29:39;;;;;;;13.32;9.65;;;;;;;;;;5116144;28;20031;-61
2024/02/17 08:32:05;;;;;;;12.40;8.57;;;;;;;;;;5115650;28;20110;-61
2024/02/17 08:34:30;;;;;;;14.48;9.40;;;;;;;;;;5115265;28;20047;-61
2024/02/17 08:36:55;;;;;;;12.20;9.55;;;;;;;;;;5097597;28;20035;-61
2024/02/17 08:39:21;;;;;;;12.73;10.15;;;;;;;;;;5115675;28;20042;-61
2024/02/17 08:41:46;;;;;;;19.73;14.52;;;;;;;;;;5115024;28;20032;-62
2024/02/17 08:44:11;;;;;;;22.45;14.43;;;;;;;;;;5097223;28;20076;-61
2024/02/17 08:46:37;;;;;;;17.70;13.73;;;;;;;;;;5115892;28;20096;-61
2024/02/17 08:49:02;;;;;;;18.92;14.77;;;;;;;;;;5115366;28;20063;-61
2024/02/17 08:51:28;;;;;;;19.67;15.18;;;;;;;;;;5115334;28;20108;-61
2024/02/17 08:53:54;;;;;;;18.50;13.07;;;;;;;;;;5114994;28;20032;-61
2024/02/17 08:56:20;;;;;;;16.25;11.75;;;;;;;;;;5115213;28;20027;-61
2024/02/17 08:58:45;;;;;;;19.20;14.55;;;;;;;;;;5114857;28;20031;-61
2024/02/17 09:01:12;;;;;;;19.52;13.90;;;;;;;;;;5115346;28;20386;-61
2024/02/17 09:03:38;;;;;;;20.85;14.35;;;;;;;;;;5114926;28;20058;-59
2024/02/17 09:06:03;;;;;;;12.57;9.88;;;;;;;;;;5114681;28;20024;-59
2024/02/17 09:08:29;;;;;;;14.43;9.75;;;;;;;;;;5115073;28;20038;-59
2024/02/17 09:10:54;;;;;;;14.93;10.02;;;;;;;;;;5096683;28;20374;-60
2024/02/17 09:13:20;;;;;;;14.00;10.73;;;;;;;;;;5114828;28;20417;-61
2024/02/17 09:15:45;;;;;;;16.70;11.95;;;;;;;;;;5096249;28;20043;-61
2024/02/17 09:18:11;;;;;;;14.13;10.55;;;;;;;;;;5096057;28;20035;-61
2024/02/17 09:20:36;;;;;;;15.73;12.65;;;;;;;;;;5105116;28;20028;-61
2024/02/17 09:23:03;;;;;;;16.08;10.25;;;;;;;;;;5111732;28;20031;-61
2024/02/17 09:25:28;;;;;;;19.90;13.02;;;;;;;;;;5111040;28;20016;-61
2024/02/17 09:27:53;;;;;;;16.95;12.65;;;;;;;;;;5110963;28;20041;-61
2024/02/17 09:30:19;;;;;;;18.20;13.77;;;;;;;;;;5110452;28;20020;-61
2024/02/17 09:32:44;;;;;;;18.88;13.43;;;;;;;;;;5110798;28;20027;-61
2024/02/17 09:35:09;;;;;;;13.32;10.23;;;;;;;;;;5110895;28;20059;-61
2024/02/17 09:37:34;;;;;;;13.48;11.40;;;;;;;;;;5110534;28;20464;-61
2024/02/17 09:40:01;;;;;;;10.70;8.77;;;;;;;;;;5110666;28;20027;-61
2024/02/17 09:42:28;;;;;;;12.23;9.88;;;;;;;;;;5110568;28;20067;-61
2024/02/17 09:44:53;;;;;;;13.10;8.95;;;;;;;;;;5110613;28;20092;-61
2024/02/17 09:47:19;;;;;;;12.88;9.20;;;;;;;;;;5092274;28;20407;-61
2024/02/17 09:49:45;;;;;;;10.82;9.13;;;;;;;;;;5110406;28;20032;-61
2024/02/17 09:52:11;;;;;;;9.95;8.65;;;;;;;;;;5110860;28;20036;-61
2024/02/17 09:54:37;;;;;;;11.48;9.57;;;;;;;;;;5110501;28;20043;-62
2024/02/17 09:57:03;;;;;;;12.25;9.50;;;;;;;;;;5110432;28;20024;-61
2024/02/17 09:59:29;;;;;;;11.50;10.30;;;;;;;;;;5110402;28;20026;-63
2024/02/17 10:01:54;;;;;;;12.52;9.93;;;;;;;;;;5093088;28;20073;-62
2024/02/17 10:04:19;;;;;;;10.43;8.55;;;;;;;;;;5111467;28;20377;-66
2024/02/17 10:06:55;;;;;;;10.30;9.25;;;;;;;;;;5111371;28;20485;-62
2024/02/17 10:09:21;;;;;;;12.73;9.13;;;;;;;;;;5093161;28;20095;-62
2024/02/17 10:11:46;;;;;;;12.05;8.82;;;;;;;;;;5111310;28;20039;-63
2024/02/17 10:14:15;;;;;;;13.15;9.27;;;;;;;;;;5110067;28;20126;-61
2024/02/17 10:16:40;;;;;;;11.98;8.95;;;;;;;;;;5092873;28;20046;-62
2024/02/17 10:19:05;;;;;;;12.00;9.38;;;;;;;;;;5110874;28;20040;-62
2024/02/17 10:21:31;;;;;;;12.55;8.90;;;;;;;;;;5110948;28;20023;-63
2024/02/17 10:23:56;;;;;;;11.70;9.32;;;;;;;;;;5111116;28;20484;-62
2024/02/17 10:26:22;;;;;;;10.73;8.05;;;;;;;;;;5111128;28;20024;-62
2024/02/17 10:28:54;;;;;;;12.38;10.18;;;;;;;;;;5111117;28;20043;-63
2024/02/17 10:31:19;;;;;;;13.27;10.32;;;;;;;;;;5110849;28;20068;-62
2024/02/17 10:33:47;;;;;;;12.02;10.18;;;;;;;;;;5092318;28;20028;-62
2024/02/17 10:36:12;;;;;;;14.38;9.70;;;;;;;;;;5092166;28;20027;-62
2024/02/17 10:38:38;;;;;;;15.80;9.75;;;;;;;;;;5110321;28;20030;-62
2024/02/17 10:41:04;;;;;;;11.57;9.82;;;;;;;;;;5110517;28;20030;-62
2024/02/17 10:43:30;;;;;;;13.75;9.60;;;;;;;;;;5110868;28;20086;-62
2024/02/17 10:45:57;;;;;;;15.05;11.57;;;;;;;;;;5110838;28;20122;-62
2024/02/17 10:48:24;;;;;;;13.25;10.85;;;;;;;;;;5111009;28;20042;-62
2024/02/17 10:50:50;;;;;;;17.73;11.68;;;;;;;;;;5092416;28;20053;-62
2024/02/17 10:53:27;;;;;;;15.23;11.55;;;;;;;;;;5110745;28;20358;-62
2024/02/17 10:55:54;;;;;;;17.23;11.30;;;;;;;;;;5110577;28;20110;-62
2024/02/17 10:58:20;;;;;;;19.42;12.13;;;;;;;;;;5110642;28;20036;-62
2024/02/17 11:00:46;;;;;;;16.88;11.48;;;;;;;;;;5110722;28;20020;-64
2024/02/17 11:03:14;;;;;;;16.73;12.02;;;;;;;;;;5111046;28;20044;-62
2024/02/17 11:05:42;;;;;;;17.52;11.65;;;;;;;;;;5110696;28;20031;-62
2024/02/17 11:08:07;;;;;;;19.05;13.40;;;;;;;;;;5110689;28;20557;-62
2024/02/17 11:10:33;;;;;;;14.73;11.50;;;;;;;;;;5110408;28;20118;-62
2024/02/17 11:12:59;;;;;;;13.27;10.75;;;;;;;;;;5111027;28;20487;-62
2024/02/17 11:15:25;;;;;;;16.33;11.18;;;;;;;;;;5111376;28;20100;-62
2024/02/17 11:17:55;;;;;;;18.70;12.93;;;;;;;;;;5111980;28;20035;-62
2024/02/17 11:20:22;;;;;;;11.23;8.95;;;;;;;;;;5110804;28;20044;-62
2024/02/17 11:22:50;;;;;;;15.10;10.68;;;;;;;;;;5110713;28;20026;-62
2024/02/17 11:25:38;;;;;;;18.63;12.38;;;;;;;;;;5076124;28;20040;-62
2024/02/17 11:28:21;;;;;;;11.85;10.00;;;;;;;;;;5114082;28;20126;-62
2024/02/17 11:30:50;;;;;;;12.25;9.32;;;;;;;;;;5113354;28;20035;-62
2024/02/17 11:33:16;;;;;;;13.95;10.93;;;;;;;;;;5114046;28;20031;-62
2024/02/17 11:35:47;;;;;;;18.55;13.43;;;;;;;;;;5114065;28;20043;-62
2024/02/17 11:38:14;;;;;;;15.57;11.40;;;;;;;;;;5113765;28;20043;-62
2024/02/17 11:40:39;;;;;;;18.73;12.63;;;;;;;;;;5113730;28;20027;-62
2024/02/17 11:43:05;;;;;;;18.90;12.07;;;;;;;;;;5113968;28;20050;-62
2024/02/17 11:45:30;;;;;;;25.25;14.63;;;;;;;;;;5113863;28;20032;-62
2024/02/17 11:47:56;;;;;;;24.30;14.93;;;;;;;;;;5113871;28;20044;-63
2024/02/17 11:50:21;;;;;;;26.65;16.67;;;;;;;;;;5113093;28;20034;-67
2024/02/17 11:52:48;;;;;;;15.00;11.48;;;;;;;;;;5095074;28;20011;-62
2024/02/17 11:55:15;;;;;;;19.00;12.30;;;;;;;;;;5113362;28;20039;-63
2024/02/17 11:57:41;;;;;;;18.80;11.95;;;;;;;;;;5113196;28;20581;-62
2024/02/17 12:00:12;;;;;;;18.13;13.05;;;;;;;;;;5109552;28;20036;-62
2024/02/17 12:02:41;;;;;;;20.08;13.27;;;;;;;;;;5090687;28;20050;-62
2024/02/17 12:05:06;;;;;;;21.20;14.25;;;;;;;;;;5092098;28;20082;-62
2024/02/17 12:07:32;;;;;;;15.10;12.15;;;;;;;;;;5110079;28;20465;-61
2024/02/17 12:09:58;;;;;;;14.18;10.98;;;;;;;;;;5111025;28;20027;-62
2024/02/17 12:12:23;;;;;;;14.75;11.18;;;;;;;;;;5113322;28;20377;-61
2024/02/17 12:14:52;;;;;;;16.27;11.73;;;;;;;;;;5113399;28;20028;-62
2024/02/17 12:17:18;;;;;;;14.23;11.30;;;;;;;;;;5111098;28;20103;-62
2024/02/17 12:19:43;;;;;;;15.40;12.15;;;;;;;;;;5112984;28;20452;-61
2024/02/17 12:22:09;;;;;;;16.95;12.30;;;;;;;;;;5113200;28;20082;-61
2024/02/17 12:24:34;;;;;;;14.88;11.40;;;;;;;;;;5113245;28;20466;-62
2024/02/17 12:27:00;;;;;;;16.45;12.32;;;;;;;;;;5094424;28;20028;-61
2024/02/17 12:29:27;;;;;;;15.57;11.88;;;;;;;;;;5091690;28;20071;-60
2024/02/17 12:31:52;;;;;;;15.55;12.45;;;;;;;;;;5110226;28;20016;-61
2024/02/17 12:34:26;;;;;;;16.27;12.27;;;;;;;;;;5111800;28;20036;-60
2024/02/17 12:36:51;;;;;;;17.40;13.45;;;;;;;;;;5111929;28;20036;-60
2024/02/17 12:39:17;;;;;;;15.45;12.43;;;;;;;;;;5112704;28;20100;-60
2024/02/17 12:41:42;;;;;;;16.63;11.95;;;;;;;;;;5112838;28;20015;-60
2024/02/17 12:44:07;;;;;;;17.38;13.02;;;;;;;;;;5112272;28;20031;-60
2024/02/17 12:46:36;;;;;;;21.15;15.00;;;;;;;;;;5112650;28;20123;-60
2024/02/17 12:49:08;;;;;;;19.33;15.52;;;;;;;;;;5112745;28;20023;-61
2024/02/17 12:51:37;;;;;;;19.55;15.13;;;;;;;;;;5112213;28;20114;-61
2024/02/17 12:54:02;;;;;;;20.48;16.15;;;;;;;;;;5094185;28;20377;-61
2024/02/17 12:56:28;;;;;;;19.80;14.57;;;;;;;;;;5112376;28;20031;-60
2024/02/17 12:58:53;;;;;;;22.90;17.02;;;;;;;;;;5112508;28;20168;-60
2024/02/17 13:01:18;;;;;;;17.73;13.82;;;;;;;;;;5112145;28;20020;-60
2024/02/17 13:03:45;;;;;;;25.63;17.92;;;;;;;;;;5112064;28;20015;-60
2024/02/17 13:06:10;;;;;;;21.58;17.65;;;;;;;;;;5112408;28;20114;-60
2024/02/17 13:08:36;;;;;;;22.33;16.42;;;;;;;;;;5112046;28;20108;-60
2024/02/17 13:11:03;;;;;;;18.33;13.65;;;;;;;;;;5091764;28;20061;-60
2024/02/17 13:13:29;;;;;;;14.38;11.40;;;;;;;;;;5109039;28;20043;-60
2024/02/17 13:15:54;;;;;;;14.63;11.77;;;;;;;;;;5108557;28;20034;-60
2024/02/17 13:18:19;;;;;;;14.90;11.27;;;;;;;;;;5109002;28;20761;-61
2024/02/17 13:20:45;;;;;;;15.48;11.88;;;;;;;;;;5091335;28;20069;-60
2024/02/17 13:23:10;;;;;;;15.00;10.88;;;;;;;;;;5110529;28;20047;-61
2024/02/17 13:25:35;;;;;;;14.27;11.07;;;;;;;;;;5109809;28;20042;-61
2024/02/17 13:28:01;;;;;;;16.42;12.05;;;;;;;;;;5112006;28;20036;-61
2024/02/17 13:30:27;;;;;;;16.00;12.30;;;;;;;;;;5111864;28;20050;-60
2024/02/17 13:32:53;;;;;;;15.07;11.68;;;;;;;;;;5093244;28;20023;-60
2024/02/17 13:35:21;;;;;;;17.20;12.98;;;;;;;;;;5111870;28;20813;-60
2024/02/17 13:37:46;;;;;;;14.00;11.48;;;;;;;;;;5109968;28;20038;-60
2024/02/17 13:40:12;;;;;;;14.05;11.45;;;;;;;;;;5109240;28;20389;-61
2024/02/17 13:42:38;;;;;;;16.17;13.07;;;;;;;;;;5090764;28;20067;-61
2024/02/17 13:45:04;;;;;;;14.07;11.73;;;;;;;;;;5109501;28;20047;-60
2024/02/17 13:47:35;;;;;;;14.63;11.85;;;;;;;;;;5109114;28;20073;-61
2024/02/17 13:50:02;;;;;;;14.95;11.40;;;;;;;;;;5109256;28;20217;-60
2024/02/17 13:52:27;;;;;;;14.00;10.93;;;;;;;;;;5109148;28;20067;-61
2024/02/17 13:54:52;;;;;;;14.27;12.02;;;;;;;;;;5109081;28;20062;-60
2024/02/17 13:57:18;;;;;;;16.95;12.40;;;;;;;;;;5089874;28;20032;-60
2024/02/17 13:59:45;;;;;;;18.33;12.93;;;;;;;;;;5074947;28;20015;-60
2024/02/17 14:02:11;;;;;;;20.65;14.77;;;;;;;;;;5111625;28;20027;-60
2024/02/17 14:04:37;;;;;;;16.48;11.90;;;;;;;;;;5111659;28;20107;-60
2024/02/17 14:07:02;;;;;;;16.63;11.98;;;;;;;;;;5111128;28;20102;-60
2024/02/17 14:09:27;;;;;;;15.32;12.38;;;;;;;;;;5111282;28;20031;-60
2024/02/17 14:11:54;;;;;;;17.05;13.15;;;;;;;;;;5111178;28;20114;-60
2024/02/17 14:14:19;;;;;;;15.82;11.90;;;;;;;;;;5110978;28;20036;-60